Terminal Aerodrome Forecast
Issued by NWS

Home | Current Version | Previous Version | Graphics & Text | Print | Product List | Glossary On
Versions: 1 2 3 4 5 6 7 8 9 10 11 12 13 14 15
883
FTUS43 KUNR 031502 AAA
TAFGCC
TAF AMD
KGCC 031502Z 0315/0412 27014KT P6SM BKN050 OVC100
     FM032300 27012KT P6SM BKN080=

USA.gov is the U.S. government's official web portal to all federal, state and local government web resources and services.